createdAt,value
2019-05-01T00:00:17.423Z,18.55
2019-05-01T00:02:48.895Z,17.55
2019-05-01T00:05:18.804Z,21.68
2019-05-01T00:07:46.889Z,20.97
2019-05-01T00:10:16.346Z,23.95
2019-05-01T00:12:44.453Z,27.93
2019-05-01T00:15:13.440Z,24.90
2019-05-01T00:17:41.882Z,19.42
2019-05-01T00:20:10.138Z,16.07
2019-05-01T00:22:38.309Z,15.73
2019-05-01T00:25:06.832Z,16.75
2019-05-01T00:27:36.897Z,15.55
2019-05-01T00:30:07.743Z,14.50
2019-05-01T00:32:36.153Z,14.00
2019-05-01T00:35:07.157Z,14.05
2019-05-01T00:37:36.977Z,13.98
2019-05-01T00:40:06.021Z,14.35
2019-05-01T00:42:34.747Z,14.30
2019-05-01T00:45:03.494Z,14.00
2019-05-01T00:47:33.250Z,12.95
2019-05-01T00:50:01.533Z,14.58
2019-05-01T00:52:31.305Z,13.90
2019-05-01T00:55:17.428Z,14.57
2019-05-01T00:57:47.159Z,14.65
2019-05-01T01:00:23.752Z,14.43
2019-05-01T01:02:51.979Z,14.73
2019-05-01T01:05:20.161Z,14.00
2019-05-01T01:07:48.255Z,12.78
2019-05-01T01:10:16.478Z,13.08
2019-05-01T01:12:44.650Z,12.18
2019-05-01T01:15:12.931Z,13.10
2019-05-01T01:17:41.107Z,12.10
2019-05-01T01:20:09.315Z,11.80
2019-05-01T01:22:37.390Z,11.73
2019-05-01T01:25:07.130Z,11.37
2019-05-01T01:27:35.409Z,12.28
2019-05-01T01:30:05.571Z,11.15
2019-05-01T01:32:33.997Z,11.73
2019-05-01T01:35:05.192Z,11.07
2019-05-01T01:37:33.380Z,11.40
2019-05-01T01:40:01.955Z,10.80
2019-05-01T01:42:32.015Z,12.50
2019-05-01T01:45:01.804Z,10.70
2019-05-01T01:47:31.739Z,11.57
2019-05-01T01:49:59.885Z,10.98
2019-05-01T01:52:28.080Z,10.95
2019-05-01T01:54:56.432Z,11.35
2019-05-01T01:57:24.676Z,11.30
2019-05-01T01:59:52.927Z,10.95
2019-05-01T02:02:25.775Z,10.30
2019-05-01T02:04:55.775Z,11.00
2019-05-01T02:07:25.324Z,10.78
2019-05-01T02:09:53.485Z,11.40
2019-05-01T02:12:21.732Z,11.22
2019-05-01T02:14:49.991Z,10.93
2019-05-01T02:17:18.106Z,11.20
2019-05-01T02:19:46.224Z,11.48
2019-05-01T02:22:14.369Z,10.70
2019-05-01T02:24:42.515Z,10.63
2019-05-01T02:27:16.392Z,11.50
2019-05-01T02:29:46.959Z,10.53
2019-05-01T02:32:17.659Z,11.10
2019-05-01T02:34:47.139Z,10.90
2019-05-01T02:37:15.389Z,10.53
2019-05-01T02:39:43.881Z,10.82
2019-05-01T02:42:13.739Z,11.43
2019-05-01T02:44:46.510Z,10.53
2019-05-01T02:47:16.163Z,12.25
2019-05-01T02:49:48.701Z,12.80
2019-05-01T02:52:17.570Z,11.85
2019-05-01T02:54:46.670Z,13.30
2019-05-01T02:57:20.125Z,13.25
2019-05-01T02:59:49.769Z,14.43
2019-05-01T03:02:18.929Z,14.07
2019-05-01T03:04:48.340Z,14.20
2019-05-01T03:07:17.165Z,15.32
2019-05-01T03:09:46.058Z,15.48
2019-05-01T03:12:15.804Z,15.05
2019-05-01T03:14:45.787Z,15.65
2019-05-01T03:17:32.553Z,14.87
2019-05-01T03:20:03.965Z,14.60
2019-05-01T03:22:35.957Z,14.87
2019-05-01T03:25:05.811Z,13.85
2019-05-01T03:27:33.997Z,14.20
2019-05-01T03:30:02.089Z,14.15
2019-05-01T03:32:30.286Z,13.98
2019-05-01T03:34:58.559Z,13.68
2019-05-01T03:37:26.785Z,14.20
2019-05-01T03:39:54.988Z,14.38
2019-05-01T03:42:23.135Z,13.40
2019-05-01T03:44:51.551Z,16.75
2019-05-01T03:47:19.669Z,35.83
2019-05-01T03:49:47.917Z,33.95
2019-05-01T03:52:16.312Z,28.90
2019-05-01T03:54:44.465Z,18.02
2019-05-01T03:57:12.932Z,14.83
2019-05-01T03:59:41.575Z,13.95
2019-05-01T04:02:31.651Z,13.53
2019-05-01T04:04:44.461Z,13.63
2019-05-01T04:07:12.548Z,13.78
2019-05-01T04:09:41.128Z,13.32
2019-05-01T04:12:09.409Z,12.40
2019-05-01T04:14:39.397Z,12.75
2019-05-01T04:17:09.132Z,13.13
2019-05-01T04:19:38.956Z,13.58
2019-05-01T04:22:11.791Z,13.53
2019-05-01T04:24:40.283Z,15.13
2019-05-01T04:27:10.126Z,13.20
2019-05-01T04:29:42.683Z,12.65
2019-05-01T04:32:12.579Z,13.62
2019-05-01T04:34:42.313Z,13.62
2019-05-01T04:37:16.424Z,13.50
2019-05-01T04:39:46.210Z,12.65
2019-05-01T04:42:14.419Z,12.73
2019-05-01T04:44:42.705Z,13.60
2019-05-01T04:47:10.876Z,12.10
2019-05-01T04:49:39.043Z,12.18
2019-05-01T04:52:07.313Z,12.40
2019-05-01T04:54:35.578Z,13.38
2019-05-01T04:57:03.657Z,13.58
2019-05-01T04:59:32.454Z,13.20
2019-05-01T05:02:05.226Z,13.00
2019-05-01T05:04:33.417Z,13.28
2019-05-01T05:07:02.168Z,13.80
2019-05-01T05:09:43.318Z,13.58
2019-05-01T05:12:19.271Z,13.75
2019-05-01T05:14:49.459Z,15.10
2019-05-01T05:17:22.150Z,14.43
2019-05-01T05:19:50.316Z,14.03
2019-05-01T05:22:18.993Z,14.15
2019-05-01T05:24:47.125Z,13.88
2019-05-01T05:27:15.949Z,15.05
2019-05-01T05:29:44.894Z,14.70
2019-05-01T05:32:14.532Z,15.18
2019-05-01T05:34:42.782Z,14.28
2019-05-01T05:37:14.104Z,14.70
2019-05-01T05:39:45.673Z,14.47
2019-05-01T05:42:14.130Z,14.15
2019-05-01T05:44:42.556Z,14.50
2019-05-01T05:47:11.472Z,15.08
2019-05-01T05:49:39.646Z,15.20
2019-05-01T05:52:13.794Z,15.13
2019-05-01T05:54:45.130Z,15.53
2019-05-01T05:57:18.611Z,14.85
2019-05-01T05:59:52.585Z,14.47
2019-05-01T06:02:35.757Z,15.25
2019-05-01T06:05:12.302Z,15.05
2019-05-01T06:07:46.242Z,14.90
2019-05-01T06:10:23.151Z,14.80
2019-05-01T06:12:59.718Z,15.35
2019-05-01T06:15:44.828Z,15.58
2019-05-01T06:18:14.664Z,14.83
2019-05-01T06:20:47.207Z,15.25
2019-05-01T06:23:24.335Z,14.98
2019-05-01T06:26:00.116Z,14.87
2019-05-01T06:28:29.398Z,14.63
2019-05-01T06:30:58.764Z,15.95
2019-05-01T06:33:26.995Z,15.38
2019-05-01T06:35:55.296Z,16.00
2019-05-01T06:38:23.513Z,15.80
2019-05-01T06:40:58.157Z,15.95
2019-05-01T06:43:27.253Z,16.25
2019-05-01T06:46:12.301Z,15.68
2019-05-01T06:48:43.841Z,15.75
2019-05-01T06:51:31.320Z,14.78
2019-05-01T06:53:59.421Z,14.73
2019-05-01T06:56:27.710Z,14.95
2019-05-01T06:58:56.473Z,15.68
2019-05-01T07:01:26.892Z,15.93
2019-05-01T07:04:03.465Z,14.37
2019-05-01T07:06:30.910Z,15.03
2019-05-01T07:08:55.948Z,15.50
2019-05-01T07:11:24.640Z,15.68
2019-05-01T07:13:55.474Z,15.33
2019-05-01T07:16:24.268Z,15.60
2019-05-01T07:18:58.412Z,14.10
2019-05-01T07:21:27.734Z,13.93
2019-05-01T07:23:54.325Z,14.33
2019-05-01T07:26:22.846Z,14.50
2019-05-01T07:29:00.153Z,14.87
2019-05-01T07:31:31.000Z,15.00
2019-05-01T07:33:58.189Z,16.20
2019-05-01T07:36:26.303Z,15.97
2019-05-01T07:38:54.468Z,14.93
2019-05-01T07:41:22.544Z,14.70
2019-05-01T07:43:59.715Z,13.60
2019-05-01T07:46:35.818Z,13.83
2019-05-01T07:49:04.192Z,13.65
2019-05-01T07:51:32.284Z,13.08
2019-05-01T07:54:04.127Z,11.38
2019-05-01T07:56:32.245Z,11.45
2019-05-01T07:59:00.367Z,11.30
2019-05-01T08:01:38.899Z,10.63
2019-05-01T08:04:07.000Z,10.55
2019-05-01T08:06:35.178Z,10.13
2019-05-01T08:09:05.564Z,9.95
2019-05-01T08:11:33.740Z,10.68
2019-05-01T08:14:07.665Z,10.10
2019-05-01T08:16:31.616Z,9.38
2019-05-01T08:19:05.810Z,8.85
2019-05-01T08:21:38.776Z,8.73
2019-05-01T08:24:08.686Z,9.58
2019-05-01T08:26:39.737Z,9.40
2019-05-01T08:29:23.162Z,9.80
2019-05-01T08:32:04.728Z,10.05
2019-05-01T08:34:34.522Z,9.38
2019-05-01T08:37:02.682Z,9.13
2019-05-01T08:39:30.747Z,11.78
2019-05-01T08:42:03.133Z,12.10
2019-05-01T08:44:30.859Z,12.90
2019-05-01T08:47:03.879Z,11.35
2019-05-01T08:49:33.589Z,12.35
2019-05-01T08:52:04.807Z,12.37
2019-05-01T08:54:33.620Z,11.45
2019-05-01T08:57:01.377Z,11.30
2019-05-01T08:59:29.439Z,11.43
2019-05-01T09:02:08.800Z,11.23
2019-05-01T09:04:30.631Z,10.78
2019-05-01T09:06:57.180Z,10.72
2019-05-01T09:09:25.528Z,9.85
2019-05-01T09:11:54.725Z,9.58
2019-05-01T09:14:22.943Z,9.60
2019-05-01T09:16:52.548Z,9.88
2019-05-01T09:19:20.811Z,8.83
2019-05-01T09:21:48.863Z,9.65
2019-05-01T09:24:17.093Z,9.33
2019-05-01T09:26:50.250Z,9.13
2019-05-01T09:29:18.258Z,10.93
2019-05-01T09:31:46.390Z,9.65
2019-05-01T09:34:19.128Z,9.53
2019-05-01T09:36:44.385Z,8.10
2019-05-01T09:39:13.076Z,10.15
2019-05-01T09:41:43.148Z,8.90
2019-05-01T09:44:12.113Z,9.58
2019-05-01T09:46:40.722Z,10.00
2019-05-01T09:49:14.209Z,10.33
2019-05-01T09:51:49.225Z,11.00
2019-05-01T09:54:18.872Z,10.72
2019-05-01T09:56:46.988Z,10.13
2019-05-01T09:59:17.466Z,10.32
2019-05-01T10:01:45.276Z,9.95
2019-05-01T10:04:13.391Z,11.85
2019-05-01T10:06:42.555Z,12.68
2019-05-01T10:09:11.939Z,13.80
2019-05-01T10:11:41.819Z,13.10
2019-05-01T10:14:10.164Z,12.53
2019-05-01T10:16:38.226Z,12.23
2019-05-01T10:19:06.410Z,12.65
2019-05-01T10:21:34.477Z,11.73
2019-05-01T10:24:02.601Z,12.20
2019-05-01T10:26:32.396Z,12.80
2019-05-01T10:29:14.140Z,12.40
2019-05-01T10:32:02.053Z,12.18
2019-05-01T10:34:42.915Z,12.18
2019-05-01T10:37:12.043Z,12.33
2019-05-01T10:39:40.152Z,22.00
2019-05-01T10:42:08.222Z,13.80
2019-05-01T10:44:36.336Z,11.88
2019-05-01T10:47:04.408Z,13.85
2019-05-01T10:49:32.524Z,13.13
2019-05-01T10:52:13.145Z,13.40
2019-05-01T10:54:31.964Z,12.37
2019-05-01T10:57:03.506Z,12.10
2019-05-01T10:59:29.914Z,12.07
2019-05-01T11:01:59.730Z,11.05
2019-05-01T11:04:27.834Z,11.03
2019-05-01T11:06:55.945Z,10.15
2019-05-01T11:09:24.097Z,10.45
2019-05-01T11:11:52.299Z,11.00
2019-05-01T11:14:20.413Z,11.40
2019-05-01T11:16:48.485Z,11.20
2019-05-01T11:19:16.570Z,9.88
2019-05-01T11:21:44.707Z,9.10
2019-05-01T11:24:12.802Z,11.73
2019-05-01T11:26:40.871Z,9.05
2019-05-01T11:29:08.971Z,10.45
2019-05-01T11:31:44.860Z,7.72
2019-05-01T11:34:14.626Z,8.68
2019-05-01T11:36:59.277Z,7.57
2019-05-01T11:39:35.842Z,7.55
2019-05-01T11:42:11.971Z,7.15
2019-05-01T11:44:40.216Z,7.55
2019-05-01T11:47:08.276Z,7.10
2019-05-01T11:49:36.371Z,7.22
2019-05-01T11:52:04.705Z,7.08
2019-05-01T11:54:32.788Z,6.72
2019-05-01T11:57:01.921Z,7.83
2019-05-01T11:59:32.580Z,7.70
2019-05-01T12:02:02.346Z,7.00
2019-05-01T12:04:29.580Z,6.65
2019-05-01T12:06:57.791Z,8.70
2019-05-01T12:09:25.884Z,7.08
2019-05-01T12:11:55.728Z,10.32
2019-05-01T12:14:23.833Z,7.50
2019-05-01T12:16:53.640Z,7.95
2019-05-01T12:19:23.733Z,7.72
2019-05-01T12:21:52.006Z,7.75
2019-05-01T12:24:20.072Z,7.33
2019-05-01T12:26:48.166Z,7.55
2019-05-01T12:29:17.299Z,7.87
2019-05-01T12:31:45.407Z,7.33
2019-05-01T12:34:13.543Z,7.95
2019-05-01T12:36:42.900Z,6.80
2019-05-01T12:39:18.326Z,7.42
2019-05-01T12:41:48.927Z,7.17
2019-05-01T12:44:18.611Z,6.57
2019-05-01T12:46:48.347Z,7.50
2019-05-01T12:49:16.564Z,6.83
2019-05-01T12:51:46.720Z,6.12
2019-05-01T12:54:28.126Z,6.03
2019-05-01T12:57:00.451Z,6.45
2019-05-01T12:59:28.546Z,5.90
2019-05-01T13:01:56.618Z,6.00
2019-05-01T13:04:25.756Z,6.47
2019-05-01T13:06:54.880Z,5.67
2019-05-01T13:09:23.062Z,6.12
2019-05-01T13:11:51.199Z,5.80
2019-05-01T13:14:20.016Z,5.50
2019-05-01T13:16:48.154Z,5.28
2019-05-01T13:19:16.308Z,7.83
2019-05-01T13:21:44.400Z,6.07
2019-05-01T13:24:12.514Z,5.42
2019-05-01T13:26:42.231Z,5.47
2019-05-01T13:29:11.979Z,6.25
2019-05-01T13:31:44.279Z,5.70
2019-05-01T13:34:12.365Z,5.30
2019-05-01T13:36:40.423Z,6.67
2019-05-01T13:39:10.064Z,5.83
2019-05-01T13:41:38.219Z,6.15
2019-05-01T13:44:07.393Z,6.58
2019-05-01T13:46:35.462Z,6.08
2019-05-01T13:49:05.917Z,6.25
2019-05-01T13:51:33.976Z,7.17
2019-05-01T13:54:06.312Z,7.63
2019-05-01T13:56:34.744Z,7.97
2019-05-01T13:59:04.164Z,8.05
2019-05-01T14:01:32.347Z,7.87
2019-05-01T14:04:00.492Z,8.13
2019-05-01T14:06:28.621Z,7.45
2019-05-01T14:08:56.743Z,8.03
2019-05-01T14:11:24.844Z,7.45
2019-05-01T14:13:53.004Z,7.75
2019-05-01T14:16:21.069Z,7.97
2019-05-01T14:18:52.194Z,8.45
2019-05-01T14:21:22.034Z,8.70
2019-05-01T14:24:10.911Z,9.20
2019-05-01T14:26:39.065Z,8.70
2019-05-01T14:29:07.244Z,9.05
2019-05-01T14:31:35.313Z,8.58
2019-05-01T14:34:03.519Z,9.40
2019-05-01T14:36:31.722Z,9.35
2019-05-01T14:39:01.331Z,8.85
2019-05-01T14:41:32.151Z,9.17
2019-05-01T14:44:00.233Z,9.53
2019-05-01T14:46:28.356Z,9.35
2019-05-01T14:48:58.074Z,8.25
2019-05-01T14:51:26.164Z,8.63
2019-05-01T14:53:54.338Z,8.57
2019-05-01T14:56:22.515Z,7.60
2019-05-01T14:58:50.795Z,8.43
2019-05-01T15:01:18.978Z,8.55
2019-05-01T15:03:47.100Z,7.42
2019-05-01T15:06:15.421Z,7.97
2019-05-01T15:08:45.394Z,8.43
2019-05-01T15:11:13.771Z,7.55
2019-05-01T15:14:02.375Z,8.20
2019-05-01T15:16:32.149Z,8.85
2019-05-01T15:19:10.755Z,8.70
2019-05-01T15:21:38.927Z,8.88
2019-05-01T15:24:07.119Z,9.70
2019-05-01T15:26:35.225Z,9.20
2019-05-01T15:29:03.777Z,10.23
2019-05-01T15:31:32.962Z,10.10
2019-05-01T15:34:02.282Z,9.93
2019-05-01T15:36:30.387Z,10.08
2019-05-01T15:38:58.967Z,10.08
2019-05-01T15:41:34.652Z,10.40
2019-05-01T15:44:04.494Z,10.95
2019-05-01T15:46:35.322Z,10.63
2019-05-01T15:49:04.868Z,11.08
2019-05-01T15:51:32.963Z,10.30
2019-05-01T15:54:01.099Z,11.43
2019-05-01T15:56:29.317Z,11.05
2019-05-01T15:58:57.489Z,11.40
2019-05-01T16:01:25.588Z,10.80
2019-05-01T16:03:53.700Z,11.33
2019-05-01T16:06:21.789Z,12.33
2019-05-01T16:08:49.998Z,12.45
2019-05-01T16:11:31.881Z,12.68
2019-05-01T16:14:00.453Z,12.45
2019-05-01T16:16:28.553Z,12.90
2019-05-01T16:18:56.864Z,12.57
2019-05-01T16:21:25.001Z,13.00
2019-05-01T16:23:53.183Z,12.82
2019-05-01T16:26:21.348Z,12.68
2019-05-01T16:28:49.510Z,13.43
2019-05-01T16:31:17.588Z,13.40
2019-05-01T16:33:45.716Z,13.15
2019-05-01T16:36:21.451Z,14.03
2019-05-01T16:39:07.093Z,13.45
2019-05-01T16:41:39.313Z,13.08
2019-05-01T16:44:22.077Z,13.40
2019-05-01T16:46:42.647Z,14.55
2019-05-01T16:49:10.803Z,13.93
2019-05-01T16:51:38.959Z,14.23
2019-05-01T16:54:08.591Z,14.43
2019-05-01T16:56:37.323Z,15.15
2019-05-01T16:59:05.549Z,14.80
2019-05-01T17:01:40.887Z,14.20
2019-05-01T17:04:15.820Z,14.73
2019-05-01T17:06:48.764Z,13.68
2019-05-01T17:09:36.958Z,14.45
2019-05-01T17:12:05.592Z,14.93
2019-05-01T17:14:33.784Z,14.78
2019-05-01T17:17:02.994Z,15.85
2019-05-01T17:19:31.274Z,15.00
2019-05-01T17:21:59.739Z,14.85
2019-05-01T17:24:27.923Z,14.47
2019-05-01T17:26:55.999Z,14.05
2019-05-01T17:29:24.128Z,13.72
2019-05-01T17:31:52.337Z,13.60
2019-05-01T17:34:20.486Z,13.88
2019-05-01T17:36:48.648Z,13.08
2019-05-01T17:39:17.492Z,13.60
2019-05-01T17:41:45.645Z,13.30
2019-05-01T17:44:13.743Z,13.55
2019-05-01T17:46:46.821Z,13.00
2019-05-01T17:49:12.859Z,13.75
2019-05-01T17:51:42.732Z,13.30
2019-05-01T17:54:10.793Z,12.18
2019-05-01T17:56:38.884Z,12.35
2019-05-01T17:59:07.017Z,13.70
2019-05-01T18:01:39.518Z,14.00
2019-05-01T18:04:25.612Z,14.50
2019-05-01T18:06:53.720Z,14.05
2019-05-01T18:09:22.122Z,14.80
2019-05-01T18:11:52.393Z,14.43
2019-05-01T18:14:20.127Z,14.33
2019-05-01T18:16:48.239Z,15.38
2019-05-01T18:19:16.663Z,15.48
2019-05-01T18:21:51.254Z,14.55
2019-05-01T18:24:34.629Z,14.98
2019-05-01T18:27:07.546Z,14.50
2019-05-01T18:29:44.476Z,13.58
2019-05-01T18:32:11.821Z,14.30
2019-05-01T18:34:40.028Z,14.30
2019-05-01T18:37:20.405Z,14.60
2019-05-01T18:39:48.561Z,15.15
2019-05-01T18:42:19.962Z,15.90
2019-05-01T18:44:48.877Z,14.18
2019-05-01T18:47:17.281Z,15.58
2019-05-01T18:49:45.440Z,16.35
2019-05-01T18:52:13.640Z,15.63
2019-05-01T18:54:41.818Z,15.80
2019-05-01T18:57:10.066Z,17.75
2019-05-01T18:59:38.163Z,17.35
2019-05-01T19:02:06.411Z,16.55
2019-05-01T19:04:34.497Z,16.12
2019-05-01T19:07:02.790Z,15.53
2019-05-01T19:09:30.944Z,15.90
2019-05-01T19:11:59.065Z,14.70
2019-05-01T19:14:29.142Z,14.73
2019-05-01T19:16:58.370Z,15.38
2019-05-01T19:19:26.545Z,15.70
2019-05-01T19:21:56.533Z,14.83
2019-05-01T19:24:25.067Z,16.15
2019-05-01T19:26:53.259Z,15.65
2019-05-01T19:29:21.400Z,16.17
2019-05-01T19:31:49.567Z,16.77
2019-05-01T19:34:17.653Z,16.93
2019-05-01T19:36:46.381Z,18.40
2019-05-01T19:39:14.535Z,19.63
2019-05-01T19:41:43.510Z,21.65
2019-05-01T19:44:13.909Z,21.33
2019-05-01T19:46:42.805Z,20.02
2019-05-01T19:49:10.978Z,19.30
2019-05-01T19:51:39.166Z,17.67
2019-05-01T19:54:07.364Z,18.52
2019-05-01T19:56:35.587Z,17.80
2019-05-01T19:59:03.781Z,18.60
2019-05-01T20:01:31.905Z,18.82
2019-05-01T20:04:00.024Z,19.23
2019-05-01T20:06:28.163Z,18.55
2019-05-01T20:08:56.377Z,20.48
2019-05-01T20:11:24.560Z,19.83
2019-05-01T20:13:52.765Z,18.95
2019-05-01T20:16:21.665Z,20.25
2019-05-01T20:18:49.988Z,21.70
2019-05-01T20:21:18.200Z,20.37
2019-05-01T20:23:46.388Z,20.25
2019-05-01T20:26:14.508Z,20.57
2019-05-01T20:28:42.730Z,21.00
2019-05-01T20:31:10.899Z,21.23
2019-05-01T20:33:44.076Z,20.90
2019-05-01T20:36:10.293Z,21.85
2019-05-01T20:38:38.470Z,22.77
2019-05-01T20:41:10.346Z,23.42
2019-05-01T20:43:38.046Z,22.98
2019-05-01T20:46:07.090Z,19.87
2019-05-01T20:48:35.496Z,20.75
2019-05-01T20:51:03.756Z,21.00
2019-05-01T20:53:32.111Z,21.75
2019-05-01T20:56:01.864Z,20.82
2019-05-01T20:58:29.939Z,20.65
2019-05-01T21:00:59.733Z,22.48
2019-05-01T21:03:28.016Z,23.25
2019-05-01T21:06:02.982Z,23.90
2019-05-01T21:08:39.440Z,24.15
2019-05-01T21:11:20.102Z,24.12
2019-05-01T21:13:48.346Z,24.57
2019-05-01T21:16:16.528Z,24.77
2019-05-01T21:18:45.745Z,23.35
2019-05-01T21:21:14.253Z,23.70
2019-05-01T21:23:43.456Z,23.60
2019-05-01T21:26:13.297Z,23.53
2019-05-01T21:28:42.951Z,22.93
2019-05-01T21:31:11.144Z,24.37
2019-05-01T21:33:40.830Z,24.13
2019-05-01T21:36:09.213Z,22.97
2019-05-01T21:38:37.365Z,23.30
2019-05-01T21:41:05.563Z,22.37
2019-05-01T21:43:37.063Z,23.92
2019-05-01T21:46:04.053Z,24.23
2019-05-01T21:48:33.431Z,24.82
2019-05-01T21:51:03.305Z,27.70
2019-05-01T21:53:32.771Z,24.18
2019-05-01T21:56:02.285Z,23.80
2019-05-01T21:58:33.459Z,26.42
2019-05-01T22:01:01.151Z,25.30
2019-05-01T22:03:29.900Z,25.10
2019-05-01T22:05:58.038Z,26.05
2019-05-01T22:08:26.613Z,26.40
2019-05-01T22:10:57.505Z,27.50
2019-05-01T22:13:25.589Z,27.13
2019-05-01T22:15:58.363Z,27.52
2019-05-01T22:18:28.655Z,27.05
2019-05-01T22:21:04.334Z,28.10
2019-05-01T22:23:37.257Z,30.65
2019-05-01T22:26:05.530Z,29.57
2019-05-01T22:28:38.557Z,31.75
2019-05-01T22:31:16.711Z,29.10
2019-05-01T22:33:46.146Z,32.83
2019-05-01T22:36:14.374Z,34.08
2019-05-01T22:38:42.566Z,35.33
2019-05-01T22:41:13.213Z,33.18
2019-05-01T22:43:41.720Z,35.30
2019-05-01T22:46:11.712Z,35.80
2019-05-01T22:48:39.917Z,35.43
2019-05-01T22:51:16.057Z,34.95
2019-05-01T22:53:47.386Z,36.27
2019-05-01T22:56:15.497Z,36.53
2019-05-01T22:58:43.611Z,36.90
2019-05-01T23:01:13.400Z,37.87
2019-05-01T23:03:47.445Z,39.83
2019-05-01T23:06:16.349Z,37.10
2019-05-01T23:08:44.475Z,37.85
2019-05-01T23:11:19.707Z,38.33
2019-05-01T23:13:43.439Z,39.80
2019-05-01T23:16:11.854Z,39.63
2019-05-01T23:18:39.960Z,39.75
2019-05-01T23:21:09.888Z,38.58
2019-05-01T23:23:37.855Z,36.77
2019-05-01T23:26:05.933Z,38.88
2019-05-01T23:28:34.879Z,40.73
2019-05-01T23:31:03.945Z,39.27
2019-05-01T23:33:32.082Z,40.70
